createdAt,value
2022-08-09T00:00:11.330Z,101505.78
2022-08-09T00:02:49.276Z,101506.41
2022-08-09T00:06:19.251Z,101506.41
2022-08-09T00:08:33.133Z,101511.00
2022-08-09T00:11:05.818Z,101505.22
2022-08-09T00:13:51.712Z,101509.78
2022-08-09T00:16:25.951Z,101510.22
2022-08-09T00:18:56.405Z,101509.59
2022-08-09T00:21:24.875Z,101514.34
2022-08-09T00:24:00.097Z,101513.53
2022-08-09T00:26:29.935Z,101505.84
2022-08-09T00:29:03.012Z,101517.06
2022-08-09T00:31:58.928Z,101507.31
2022-08-09T00:34:20.384Z,101511.28
2022-08-09T00:37:15.291Z,101504.84
2022-08-09T00:40:09.724Z,101506.53
2022-08-09T00:44:10.158Z,101514.63
2022-08-09T00:45:23.240Z,101513.22
2022-08-09T00:48:16.894Z,101517.34
2022-08-09T00:50:47.411Z,101513.00
2022-08-09T00:53:23.986Z,101515.69
2022-08-09T00:56:04.226Z,101516.75
2022-08-09T00:58:36.130Z,101524.63
2022-08-09T01:01:15.924Z,101523.13
2022-08-09T01:03:56.813Z,101520.03
2022-08-09T01:06:54.479Z,101524.78
2022-08-09T01:09:36.770Z,101522.94
2022-08-09T01:12:15.584Z,101511.09
2022-08-09T01:15:37.162Z,101514.44
2022-08-09T01:18:35.134Z,101519.81
2022-08-09T01:21:40.946Z,101523.53
2022-08-09T01:24:50.525Z,101521.47
2022-08-09T01:27:30.800Z,101521.25
2022-08-09T01:30:02.390Z,101516.50
2022-08-09T01:32:36.450Z,101524.78
2022-08-09T01:35:37.621Z,101524.56
2022-08-09T01:38:15.022Z,101517.91
2022-08-09T01:41:05.752Z,101520.63
2022-08-09T01:43:42.076Z,101521.25
2022-08-09T01:46:36.303Z,101518.97
2022-08-09T01:49:12.715Z,101522.72
2022-08-09T01:51:53.933Z,101513.59
2022-08-09T01:54:48.522Z,101523.94
2022-08-09T01:57:52.847Z,101520.25
2022-08-09T02:00:50.513Z,101536.00
2022-08-09T02:03:19.715Z,101524.78
2022-08-09T02:05:53.541Z,101527.28
2022-08-09T02:08:57.025Z,101528.50
2022-08-09T02:11:25.668Z,101534.13
2022-08-09T02:14:15.030Z,101530.78
2022-08-09T02:17:14.698Z,101534.13
2022-08-09T02:19:45.042Z,101531.84
2022-08-09T02:22:46.469Z,101525.41
2022-08-09T02:25:27.519Z,101526.44
2022-08-09T02:28:17.761Z,101526.03
2022-08-09T02:30:51.747Z,101526.00
2022-08-09T02:33:58.250Z,101526.22
2022-08-09T02:36:18.513Z,101534.09
2022-08-09T02:38:55.753Z,101533.84
2022-08-09T02:41:38.643Z,101530.34
2022-08-09T02:44:29.260Z,101537.78
2022-08-09T02:47:04.271Z,101532.81
2022-08-09T02:49:38.781Z,101539.47
2022-08-09T02:52:36.801Z,101538.00
2022-08-09T02:55:15.188Z,101540.69
2022-08-09T02:58:00.376Z,101542.97
2022-08-09T03:00:57.724Z,101545.88
2022-08-09T03:03:37.190Z,101536.53
2022-08-09T03:06:17.974Z,101541.09
2022-08-09T03:08:47.492Z,101536.94
2022-08-09T03:12:06.515Z,101537.59
2022-08-09T03:14:12.941Z,101540.47
2022-08-09T03:16:47.715Z,101541.09
2022-08-09T03:19:52.646Z,101548.78
2022-08-09T03:22:12.260Z,101542.34
2022-08-09T03:25:05.880Z,101550.41
2022-08-09T03:27:52.174Z,101550.19
2022-08-09T03:30:46.121Z,101549.13
2022-08-09T03:33:19.064Z,101551.63
2022-08-09T03:36:37.041Z,101550.34
2022-08-09T03:39:05.593Z,101539.38
2022-08-09T03:41:48.251Z,101543.31
2022-08-09T03:44:16.695Z,101551.63
2022-08-09T03:46:47.036Z,101549.19
2022-08-09T03:49:19.253Z,101552.94
2022-08-09T03:51:58.193Z,101550.25
2022-08-09T03:54:34.890Z,101549.00
2022-08-09T03:57:18.649Z,101550.88
2022-08-09T04:00:00.639Z,101558.16
2022-08-09T04:02:40.312Z,101556.91
2022-08-09T04:05:14.051Z,101565.00
2022-08-09T04:07:58.553Z,101561.25
2022-08-09T04:10:29.079Z,101560.44
2022-08-09T04:13:03.827Z,101562.13
2022-08-09T04:16:19.335Z,101560.03
2022-08-09T04:19:15.750Z,101562.34
2022-08-09T04:21:45.519Z,101574.78
2022-08-09T04:24:21.313Z,101566.50
2022-08-09T04:26:54.945Z,101566.28
2022-08-09T04:29:24.463Z,101570.84
2022-08-09T04:32:15.024Z,101566.50
2022-08-09T04:34:47.747Z,101569.19
2022-08-09T04:38:33.420Z,101566.06
2022-08-09T04:41:02.548Z,101571.63
2022-08-09T04:43:35.738Z,101578.28
2022-08-09T04:46:03.927Z,101571.66
2022-08-09T04:48:33.454Z,101577.03
2022-08-09T04:51:27.356Z,101574.34
2022-08-09T04:54:01.256Z,101584.09
2022-08-09T04:56:30.576Z,101578.69
2022-08-09T04:59:25.598Z,101583.66
2022-08-09T05:02:27.444Z,101580.75
2022-08-09T05:04:56.259Z,101582.84
2022-08-09T05:07:29.216Z,101580.97
2022-08-09T05:10:03.196Z,101588.06
2022-08-09T05:12:55.825Z,101588.28
2022-08-09T05:15:39.209Z,101595.75
2022-08-09T05:18:37.820Z,101594.72
2022-08-09T05:21:02.881Z,101595.94
2022-08-09T05:24:03.986Z,101589.72
2022-08-09T05:26:36.506Z,101597.59
2022-08-09T05:29:06.789Z,101599.66
2022-08-09T05:31:56.139Z,101605.03
2022-08-09T05:34:30.064Z,101597.13
2022-08-09T05:37:07.447Z,101599.63
2022-08-09T05:39:42.863Z,101604.56
2022-08-09T05:42:21.237Z,101602.50
2022-08-09T05:44:54.162Z,101594.38
2022-08-09T05:47:27.191Z,101603.50
2022-08-09T05:50:30.021Z,101602.22
2022-08-09T05:52:53.519Z,101615.13
2022-08-09T05:55:47.163Z,101610.38
2022-08-09T05:58:18.660Z,101604.75
2022-08-09T06:00:46.446Z,101613.84
2022-08-09T06:03:20.038Z,101604.66
2022-08-09T06:05:58.043Z,101607.91
2022-08-09T06:08:34.602Z,101610.38
2022-08-09T06:11:16.457Z,101617.56
2022-08-09T06:13:47.514Z,101617.34
2022-08-09T06:16:25.479Z,101619.66
2022-08-09T06:18:53.480Z,101617.97
2022-08-09T06:21:21.878Z,101617.91
2022-08-09T06:23:58.266Z,101622.25
2022-08-09T06:26:30.091Z,101623.47
2022-08-09T06:29:05.227Z,101624.41
2022-08-09T06:32:36.152Z,101614.38
2022-08-09T06:34:30.783Z,101617.13
2022-08-09T06:36:59.735Z,101618.22
2022-08-09T06:39:48.316Z,101617.34
2022-08-09T06:42:24.431Z,101626.66
2022-08-09T06:44:57.293Z,101626.47
2022-08-09T06:47:30.330Z,101624.50
2022-08-09T06:50:13.361Z,101623.19
2022-08-09T06:53:05.010Z,101634.00
2022-08-09T06:55:33.479Z,101629.13
2022-08-09T06:58:04.436Z,101626.16
2022-08-09T07:00:51.876Z,101635.59
2022-08-09T07:03:27.907Z,101628.22
2022-08-09T07:06:03.534Z,101627.41
2022-08-09T07:08:37.415Z,101638.84
2022-08-09T07:11:08.507Z,101632.97
2022-08-09T07:14:03.576Z,101634.72
2022-08-09T07:16:43.338Z,101631.19
2022-08-09T07:19:18.659Z,101637.81
2022-08-09T07:21:57.071Z,101637.19
2022-08-09T07:24:32.267Z,101638.31
2022-08-09T07:27:26.695Z,101638.31
2022-08-09T07:30:00.778Z,101641.16
2022-08-09T07:32:33.624Z,101637.03
2022-08-09T07:35:08.191Z,101645.06
2022-08-09T07:37:44.047Z,101639.78
2022-08-09T07:40:16.950Z,101645.41
2022-08-09T07:42:50.240Z,101647.31
2022-08-09T07:45:23.613Z,101655.69
2022-08-09T07:48:25.321Z,101647.75
2022-08-09T07:51:09.969Z,101654.34
2022-08-09T07:54:05.383Z,101649.50
2022-08-09T07:56:44.747Z,101654.75
2022-08-09T07:59:33.631Z,101657.59
2022-08-09T08:02:03.388Z,101651.13
2022-08-09T08:04:33.269Z,101652.69
2022-08-09T08:07:15.140Z,101648.75
2022-08-09T08:09:55.110Z,101654.50
2022-08-09T08:12:43.758Z,101658.84
2022-08-09T08:15:16.480Z,101663.91
2022-08-09T08:17:54.846Z,101657.81
2022-08-09T08:20:32.792Z,101658.47
2022-08-09T08:23:16.087Z,101659.63
2022-08-09T08:25:49.699Z,101668.78
2022-08-09T08:28:32.001Z,101667.25
2022-08-09T08:31:14.221Z,101659.78
2022-08-09T08:33:53.161Z,101665.50
2022-08-09T08:36:28.820Z,101663.59
2022-08-09T08:39:22.898Z,101661.03
2022-08-09T08:41:52.482Z,101664.72
2022-08-09T08:44:22.955Z,101664.44
2022-08-09T08:47:02.960Z,101664.91
2022-08-09T08:49:46.386Z,101663.59
2022-08-09T08:52:48.434Z,101661.72
2022-08-09T08:55:05.584Z,101654.75
2022-08-09T08:57:35.429Z,101660.53
2022-08-09T09:00:12.791Z,101661.06
2022-08-09T09:02:53.632Z,101659.69
2022-08-09T09:05:32.980Z,101655.78
2022-08-09T09:08:30.710Z,101663.91
2022-08-09T09:11:05.696Z,101653.59
2022-08-09T09:13:56.198Z,101658.94
2022-08-09T09:16:33.710Z,101655.16
2022-08-09T09:22:14.060Z,101655.22
2022-08-09T09:24:47.041Z,101654.41
2022-08-09T09:28:03.197Z,101654.03
2022-08-09T09:30:26.112Z,101654.19
2022-08-09T09:33:15.448Z,101653.22
2022-08-09T09:36:11.725Z,101652.66
2022-08-09T09:38:57.425Z,101655.91
2022-08-09T09:41:32.921Z,101642.38
2022-08-09T09:44:11.832Z,101652.94
2022-08-09T09:46:45.911Z,101647.50
2022-08-09T09:49:23.544Z,101644.09
2022-08-09T09:52:16.703Z,101645.28
2022-08-09T09:55:27.524Z,101644.78
2022-08-09T09:58:03.254Z,101639.81
2022-08-09T10:00:33.808Z,101645.41
2022-08-09T10:03:11.799Z,101645.59
2022-08-09T10:06:04.613Z,101641.22
2022-08-09T10:08:43.315Z,101645.91
2022-08-09T10:11:59.664Z,101634.72
2022-08-09T10:14:33.093Z,101643.59
2022-08-09T10:17:40.622Z,101639.63
2022-08-09T10:20:01.825Z,101642.84
2022-08-09T10:22:37.193Z,101644.81
2022-08-09T10:25:11.742Z,101642.88
2022-08-09T10:27:57.132Z,101641.97
2022-08-09T10:34:04.937Z,101644.69
2022-08-09T10:36:12.272Z,101639.50
2022-08-09T10:38:57.110Z,101651.59
2022-08-09T10:42:06.402Z,101646.78
2022-08-09T10:45:10.705Z,101639.44
2022-08-09T10:48:19.497Z,101642.59
2022-08-09T10:51:01.820Z,101647.63
2022-08-09T10:53:39.346Z,101643.31
2022-08-09T10:56:22.948Z,101623.94
2022-08-09T10:58:54.001Z,101636.66
2022-08-09T11:03:11.986Z,101632.34
2022-08-09T11:04:30.108Z,101631.06
2022-08-09T11:07:00.717Z,101632.25
2022-08-09T11:09:38.191Z,101640.75
2022-08-09T11:12:17.131Z,101632.06
2022-08-09T11:14:55.806Z,101630.75
2022-08-09T11:17:24.583Z,101629.03
2022-08-09T11:20:10.797Z,101626.28
2022-08-09T11:22:44.809Z,101628.31
2022-08-09T11:25:47.988Z,101620.34
2022-08-09T11:28:34.051Z,101622.78
2022-08-09T11:31:36.633Z,101612.53
2022-08-09T11:34:14.491Z,101619.97
2022-08-09T11:36:44.408Z,101621.69
2022-08-09T11:39:13.040Z,101616.84
2022-08-09T11:41:45.983Z,101613.88
2022-08-09T11:44:16.723Z,101612.44
2022-08-09T11:46:52.883Z,101610.03
2022-08-09T11:50:55.557Z,101614.75
2022-08-09T11:53:20.971Z,101605.09
2022-08-09T11:55:52.666Z,101606.69
2022-08-09T11:58:33.065Z,101601.16
2022-08-09T12:01:08.310Z,101609.88
2022-08-09T12:03:57.124Z,101597.69
2022-08-09T12:09:35.741Z,101598.38
2022-08-09T12:12:13.021Z,101592.03
2022-08-09T12:15:04.054Z,101588.34
2022-08-09T12:17:44.295Z,101588.72
2022-08-09T12:20:26.091Z,101587.16
2022-08-09T12:22:57.381Z,101590.81
2022-08-09T12:25:35.853Z,101583.38
2022-08-09T12:29:14.627Z,101580.72
2022-08-09T12:31:10.802Z,101579.56
2022-08-09T12:33:58.492Z,101572.00
2022-08-09T12:36:33.454Z,101570.06
2022-08-09T12:39:02.394Z,101572.44
2022-08-09T12:41:39.314Z,101568.84
2022-08-09T12:44:10.287Z,101570.25
2022-08-09T12:46:48.803Z,101563.84
2022-08-09T12:49:19.158Z,101563.13
2022-08-09T12:52:02.371Z,101574.69
2022-08-09T12:56:12.239Z,101564.59
2022-08-09T12:57:42.920Z,101559.25
2022-08-09T13:00:25.800Z,101566.63
2022-08-09T13:02:56.577Z,101559.06
2022-08-09T13:05:25.528Z,101558.31
2022-08-09T13:08:14.436Z,101562.78
2022-08-09T13:10:57.106Z,101563.69
2022-08-09T13:14:40.663Z,101557.13
2022-08-09T13:16:54.959Z,101563.44
2022-08-09T13:20:09.646Z,101560.69
2022-08-09T13:22:35.594Z,101566.97
2022-08-09T13:25:54.416Z,101569.91
2022-08-09T13:28:34.334Z,101567.00
2022-08-09T13:32:09.860Z,101572.16
2022-08-09T13:33:59.378Z,101575.09
2022-08-09T13:36:40.188Z,101571.66
2022-08-09T13:41:17.110Z,101564.56
2022-08-09T13:42:13.977Z,101576.34
2022-08-09T13:44:45.921Z,101566.19
2022-08-09T13:47:31.182Z,101565.44
2022-08-09T13:50:30.006Z,101563.84
2022-08-09T13:52:59.303Z,101556.59
2022-08-09T13:55:29.039Z,101563.06
2022-08-09T13:57:59.714Z,101566.09
2022-08-09T14:00:29.395Z,101557.13
2022-08-09T14:03:03.156Z,101561.03
2022-08-09T14:05:56.771Z,101552.22
2022-08-09T14:08:33.392Z,101555.59
2022-08-09T14:11:01.513Z,101551.03
2022-08-09T14:14:24.720Z,101547.09
2022-08-09T14:16:28.775Z,101542.75
2022-08-09T14:18:59.396Z,101550.00
2022-08-09T14:21:29.314Z,101546.94
2022-08-09T14:24:01.413Z,101548.13
2022-08-09T14:26:36.914Z,101547.69
2022-08-09T14:29:25.784Z,101528.31
2022-08-09T14:31:57.568Z,101532.94
2022-08-09T14:34:32.241Z,101533.09
2022-08-09T14:37:07.444Z,101526.09
2022-08-09T14:39:46.500Z,101529.53
2022-08-09T14:42:30.847Z,101527.47
2022-08-09T14:46:39.172Z,101525.44
2022-08-09T14:47:58.844Z,101524.03
2022-08-09T14:50:44.894Z,101526.41
2022-08-09T14:53:14.690Z,101528.16
2022-08-09T14:56:57.583Z,101531.91
2022-08-09T14:59:30.686Z,101528.03
2022-08-09T15:02:09.040Z,101529.47
2022-08-09T15:04:40.758Z,101538.69
2022-08-09T15:07:09.979Z,101529.44
2022-08-09T15:10:07.892Z,101529.19
2022-08-09T15:12:26.397Z,101521.63
2022-08-09T15:14:55.476Z,101523.19
2022-08-09T15:17:31.111Z,101517.75
2022-08-09T15:20:02.704Z,101509.72
2022-08-09T15:22:33.106Z,101512.88
2022-08-09T15:25:03.849Z,101514.72
2022-08-09T15:27:47.803Z,101513.25
2022-08-09T15:30:58.561Z,101510.84
2022-08-09T15:33:15.187Z,101508.34
2022-08-09T15:36:01.909Z,101513.94
2022-08-09T15:38:34.439Z,101525.53
2022-08-09T15:41:09.412Z,101525.47
2022-08-09T15:43:41.761Z,101522.31
2022-08-09T15:46:31.743Z,101520.25
2022-08-09T15:49:22.015Z,101522.75
2022-08-09T15:52:04.842Z,101526.22
2022-08-09T15:54:44.664Z,101526.00
2022-08-09T15:57:35.966Z,101528.22
2022-08-09T16:03:29.256Z,101520.69
2022-08-09T16:06:29.476Z,101528.03
2022-08-09T16:09:01.276Z,101523.88
2022-08-09T16:11:33.719Z,101524.00
2022-08-09T16:14:06.813Z,101525.53
2022-08-09T16:16:42.055Z,101532.84
2022-08-09T16:19:16.577Z,101531.19
2022-08-09T16:21:52.060Z,101527.09
2022-08-09T16:24:33.120Z,101522.38
2022-08-09T16:27:05.113Z,101521.19
2022-08-09T16:29:36.832Z,101528.75
2022-08-09T16:32:33.338Z,101521.09
2022-08-09T16:34:57.814Z,101525.91
2022-08-09T16:37:55.766Z,101524.16
2022-08-09T16:40:20.619Z,101515.44
2022-08-09T16:43:06.520Z,101521.91
2022-08-09T16:45:43.806Z,101527.72
2022-08-09T16:48:43.399Z,101518.50
2022-08-09T16:51:08.213Z,101525.00
2022-08-09T16:54:02.559Z,101526.06
2022-08-09T16:56:31.093Z,101522.31
2022-08-09T16:59:01.285Z,101530.31
2022-08-09T17:01:35.691Z,101524.75
2022-08-09T17:04:05.244Z,101530.63
2022-08-09T17:08:40.292Z,101541.13
2022-08-09T17:09:45.135Z,101536.53
2022-08-09T17:12:10.374Z,101543.47
2022-08-09T17:14:38.329Z,101539.94
2022-08-09T17:17:26.439Z,101542.41
2022-08-09T17:20:33.280Z,101535.56
2022-08-09T17:22:50.282Z,101541.22
2022-08-09T17:25:21.999Z,101538.72
2022-08-09T17:27:54.535Z,101545.22
2022-08-09T17:30:25.512Z,101551.78
2022-08-09T17:33:04.749Z,101545.81
2022-08-09T17:35:36.094Z,101542.69
2022-08-09T17:38:32.553Z,101548.38
2022-08-09T17:40:58.785Z,101550.13
2022-08-09T17:43:33.929Z,101550.22
2022-08-09T17:46:08.970Z,101551.63
2022-08-09T17:48:51.605Z,101561.03
2022-08-09T17:51:20.719Z,101557.97
2022-08-09T17:53:53.093Z,101563.81
2022-08-09T17:56:32.409Z,101559.88
2022-08-09T17:59:09.121Z,101562.44
2022-08-09T18:02:03.899Z,101559.16
2022-08-09T18:04:28.556Z,101558.19
2022-08-09T18:06:56.955Z,101558.41
2022-08-09T18:09:35.787Z,101556.59
2022-08-09T18:12:19.445Z,101561.41
2022-08-09T18:14:54.969Z,101560.22
2022-08-09T18:17:27.633Z,101567.97
2022-08-09T18:20:56.441Z,101570.84
2022-08-09T18:23:05.262Z,101566.09
2022-08-09T18:25:52.972Z,101578.44
2022-08-09T18:30:39.327Z,101579.13
2022-08-09T18:31:15.068Z,101572.88
2022-08-09T18:33:53.716Z,101582.28
2022-08-09T18:36:25.863Z,101574.00
2022-08-09T18:39:02.853Z,101580.09
2022-08-09T18:41:34.902Z,101585.34
2022-08-09T18:44:13.242Z,101584.09
2022-08-09T18:46:50.726Z,101586.41
2022-08-09T18:49:28.498Z,101584.53
2022-08-09T18:52:00.253Z,101583.94
2022-08-09T18:54:30.153Z,101588.53
2022-08-09T18:57:05.416Z,101586.03
2022-08-09T18:59:51.140Z,101587.91
2022-08-09T19:02:42.717Z,101583.56
2022-08-09T19:05:28.859Z,101588.81
2022-08-09T19:08:10.569Z,101590.91
2022-08-09T19:10:41.961Z,101590.69
2022-08-09T19:13:22.262Z,101587.13
2022-08-09T19:16:01.436Z,101595.69
2022-08-09T19:18:34.043Z,101589.91
2022-08-09T19:21:09.771Z,101592.03
2022-08-09T19:24:37.924Z,101601.63
2022-08-09T19:26:32.132Z,101592.31
2022-08-09T19:29:03.309Z,101594.78
2022-08-09T19:31:44.821Z,101596.44
2022-08-09T19:34:22.298Z,101596.81
2022-08-09T19:36:55.789Z,101600.53
2022-08-09T19:39:29.270Z,101597.81
2022-08-09T19:42:15.040Z,101595.94
2022-08-09T19:44:49.256Z,101603.22
2022-08-09T19:47:22.994Z,101595.94
2022-08-09T19:50:06.677Z,101586.38
2022-08-09T19:52:37.203Z,101597.19
2022-08-09T19:55:19.587Z,101594.50
2022-08-09T19:57:53.306Z,101596.00
2022-08-09T20:00:21.175Z,101597.84
2022-08-09T20:04:10.523Z,101596.22
2022-08-09T20:05:46.306Z,101593.94
2022-08-09T20:08:33.553Z,101596.44
2022-08-09T20:11:04.878Z,101592.31
2022-08-09T20:13:37.011Z,101592.50
2022-08-09T20:16:37.405Z,101591.91
2022-08-09T20:19:42.208Z,101594.22
2022-08-09T20:21:56.932Z,101595.72
2022-08-09T20:24:31.822Z,101595.53
2022-08-09T20:27:05.661Z,101598.91
2022-08-09T20:29:39.908Z,101603.69
2022-08-09T20:32:33.238Z,101603.31
2022-08-09T20:35:01.411Z,101599.00
2022-08-09T20:37:37.845Z,101592.16
2022-08-09T20:40:26.913Z,101597.16
2022-08-09T20:43:18.911Z,101594.91
2022-08-09T20:45:59.757Z,101592.22
2022-08-09T20:48:31.470Z,101599.09
2022-08-09T20:51:01.306Z,101595.41
2022-08-09T20:53:36.281Z,101600.81
2022-08-09T20:56:20.544Z,101595.69
2022-08-09T20:58:57.886Z,101600.91
2022-08-09T21:01:35.174Z,101596.38
2022-08-09T21:05:56.200Z,101598.88
2022-08-09T21:07:10.914Z,101601.38
2022-08-09T21:09:46.055Z,101600.50
2022-08-09T21:15:15.378Z,101594.97
2022-08-09T21:18:11.318Z,101592.28
2022-08-09T21:20:35.392Z,101590.84
2022-08-09T21:23:04.337Z,101592.94
2022-08-09T21:25:56.049Z,101596.50
2022-08-09T21:28:35.582Z,101597.53
2022-08-09T21:31:13.553Z,101602.13
2022-08-09T21:33:52.484Z,101604.19
2022-08-09T21:36:23.357Z,101599.00
2022-08-09T21:38:57.958Z,101602.31
2022-08-09T21:42:00.304Z,101603.56
2022-08-09T21:44:33.196Z,101599.41
2022-08-09T21:47:08.589Z,101609.78
2022-08-09T21:49:39.722Z,101603.78
2022-08-09T21:52:17.276Z,101607.31
2022-08-09T21:55:04.404Z,101602.31
2022-08-09T21:57:38.302Z,101596.75
2022-08-09T22:00:31.735Z,101603.41
2022-08-09T22:03:12.563Z,101593.22
2022-08-09T22:05:54.950Z,101604.44
2022-08-09T22:08:25.824Z,101603.41
2022-08-09T22:11:50.538Z,101597.16
2022-08-09T22:13:43.930Z,101603.41
2022-08-09T22:16:12.171Z,101598.22
2022-08-09T22:18:44.027Z,101596.34
2022-08-09T22:21:27.542Z,101597.59
2022-08-09T22:24:16.865Z,101597.41
2022-08-09T22:26:47.866Z,101594.91
2022-08-09T22:29:32.294Z,101603.00
2022-08-09T22:32:30.093Z,101593.88
2022-08-09T22:35:05.947Z,101598.44
2022-08-09T22:37:40.356Z,101596.56
2022-08-09T22:40:09.649Z,101587.84
2022-08-09T22:42:38.803Z,101590.34
2022-08-09T22:48:11.603Z,101587.84
2022-08-09T22:48:11.987Z,101592.66
2022-08-09T22:50:53.070Z,101586.63
2022-08-09T22:53:21.158Z,101584.75
2022-08-09T22:56:30.268Z,101582.06
2022-08-09T22:58:41.704Z,101580.00
2022-08-09T23:01:10.480Z,101585.59
2022-08-09T23:04:03.273Z,101585.19
2022-08-09T23:06:48.018Z,101577.69
2022-08-09T23:09:18.378Z,101584.13
2022-08-09T23:11:49.577Z,101572.13
2022-08-09T23:14:17.738Z,101582.69
2022-08-09T23:17:05.471Z,101582.28
2022-08-09T23:20:06.064Z,101587.84
2022-08-09T23:22:21.054Z,101588.28
2022-08-09T23:24:48.923Z,101590.13
2022-08-09T23:27:17.459Z,101587.00
2022-08-09T23:29:45.247Z,101587.41
2022-08-09T23:32:13.249Z,101594.22
2022-08-09T23:34:41.063Z,101582.63
2022-08-09T23:37:09.421Z,101591.13
2022-08-09T23:39:37.211Z,101588.44
2022-08-09T23:42:05.352Z,101591.94
2022-08-09T23:44:33.068Z,101584.28
2022-08-09T23:47:00.951Z,101582.81
2022-08-09T23:49:28.722Z,101590.28
2022-08-09T23:51:56.702Z,101590.47
2022-08-09T23:54:26.533Z,101590.06
2022-08-09T23:56:58.671Z,101590.03
2022-08-09T23:59:46.387Z,101586.91
